Time;durP1;ratioP1;P1;durP2;ratioP2;P2;SDS_P1;SDS_P2;PMS_P1;PMS_P2;Temp;Humidity;BMP_temperature;BMP_pressure;BME280_temperature;BME280_humidity;BME280_pressure;Samples;Min_cycle;Max_cycle;Signal;HPM_P1;HPM_P2
2022/08/15 04:22:41;;;;;;;3.13;1.95;;;;;;;19.94;86.37;99262.31;5102918;28;20327;-66
2022/08/15 04:25:21;;;;;;;3.17;1.80;;;;;;;19.96;85.90;99272.88;5107985;28;20043;-66
2022/08/15 04:27:52;;;;;;;2.85;1.63;;;;;;;19.99;85.36;99272.34;5108043;28;20031;-66
2022/08/15 04:30:18;;;;;;;4.10;1.98;;;;;;;20.05;84.79;99276.72;5107673;28;20032;-66
2022/08/15 04:32:43;;;;;;;2.92;2.03;;;;;;;20.03;84.90;99277.00;5107839;28;20468;-66
2022/08/15 04:35:11;;;;;;;3.17;1.70;;;;;;;20.07;84.43;99279.97;5108142;28;20039;-65
2022/08/15 04:37:39;;;;;;;2.22;1.33;;;;;;;20.07;84.22;99274.56;5107773;28;20036;-65
2022/08/15 04:40:09;;;;;;;5.40;2.28;;;;;;;20.06;84.64;99272.94;5107375;28;20467;-66
2022/08/15 04:42:50;;;;;;;4.95;2.15;;;;;;;20.05;84.99;99279.44;5107733;28;20042;-65
2022/08/15 04:45:16;;;;;;;2.78;1.63;;;;;;;20.03;85.14;99277.00;5107206;28;20046;-66
2022/08/15 04:47:43;;;;;;;3.08;1.80;;;;;;;20.09;85.00;99279.75;5107365;28;20123;-66
2022/08/15 04:50:09;;;;;;;3.15;1.83;;;;;;;20.09;84.87;99272.44;5108520;28;20514;-66
2022/08/15 04:52:47;;;;;;;4.00;1.83;;;;;;;20.11;84.93;99274.88;5107526;28;20039;-66
2022/08/15 04:55:13;;;;;;;;;;;;;;;20.11;85.24;99278.41;5107866;28;20048;-66
2022/08/15 04:57:40;;;;;;;3.45;2.03;;;;;;;20.12;85.09;99276.50;5108842;28;19922;-66
2022/08/15 05:00:11;;;;;;;4.00;1.87;;;;;;;20.11;84.52;99272.19;5107110;28;20044;-66
2022/08/15 05:03:13;;;;;;;4.32;1.70;;;;;;;20.07;84.87;99271.88;5107145;28;20282;-66
2022/08/15 05:05:44;;;;;;;2.85;1.90;;;;;;;20.07;84.85;99269.16;5107161;28;20081;-65
2022/08/15 05:08:11;;;;;;;2.17;1.80;;;;;;;20.03;85.06;99273.47;5107575;28;20032;-53
2022/08/15 05:10:39;;;;;;;2.05;1.50;;;;;;;19.96;85.50;99271.00;5107024;28;20032;-52
2022/08/15 05:13:15;;;;;;;2.97;2.10;;;;;;;19.94;85.74;99261.50;5107122;28;20031;-55
2022/08/15 05:15:42;;;;;;;3.35;1.50;;;;;;;19.95;86.01;99266.66;5107003;28;20046;-52
2022/08/15 05:18:08;;;;;;;2.75;1.45;;;;;;;19.95;86.21;99266.66;5107109;28;20032;-54
2022/08/15 05:20:34;;;;;;;2.75;1.95;;;;;;;19.91;86.06;99262.84;5107971;28;20370;-54
2022/08/15 05:23:09;;;;;;;1.90;1.40;;;;;;;19.93;85.83;99263.38;5106965;28;20039;-54
2022/08/15 05:25:50;;;;;;;2.72;1.55;;;;;;;19.95;86.15;99260.41;5106953;28;20488;-55
2022/08/15 05:28:17;;;;;;;4.68;1.90;;;;;;;19.97;85.97;99267.22;5106901;28;20031;-55
2022/08/15 05:30:43;;;;;;;4.03;2.17;;;;;;;20.00;85.60;99265.88;5106575;28;20038;-53
2022/08/15 05:33:14;;;;;;;5.43;1.38;;;;;;;20.00;84.92;99268.56;5097643;28;20157;-53
2022/08/15 05:35:43;;;;;;;2.90;1.60;;;;;;;19.95;85.49;99257.72;5093149;28;20489;-50
2022/08/15 05:38:15;;;;;;;1.63;1.40;;;;;;;19.97;85.68;99256.41;5093062;28;20035;-54
2022/08/15 05:41:03;;;;;;;2.85;1.55;;;;;;;19.95;85.74;99261.25;5094074;28;20044;-52
2022/08/15 05:43:50;;;;;;;3.00;1.65;;;;;;;19.97;85.20;99269.09;5093120;28;20472;-52
2022/08/15 05:46:39;;;;;;;1.70;1.20;;;;;;;19.97;85.06;99272.63;5092956;28;20035;-51
2022/08/15 05:49:25;;;;;;;2.10;1.55;;;;;;;19.97;84.83;99275.31;5092552;28;20032;-50
2022/08/15 05:52:24;;;;;;;1.92;1.38;;;;;;;19.98;85.50;99273.44;5092948;28;20028;-54
2022/08/15 05:55:02;;;;;;;2.55;1.27;;;;;;;19.98;84.88;99271.53;5092992;28;20091;-51
2022/08/15 05:57:51;;;;;;;3.67;1.63;;;;;;;19.98;85.27;99281.53;5092606;28;20055;-51
2022/08/15 06:00:21;;;;;;;2.30;1.60;;;;;;;19.98;84.50;99273.44;5059783;28;20087;-53
2022/08/15 06:02:58;;;;;;;2.42;1.42;;;;;;;19.97;84.12;99272.63;5072384;28;20036;-52
2022/08/15 06:05:27;;;;;;;2.10;1.63;;;;;;;19.98;84.43;99287.75;5072495;28;20037;-55
2022/08/15 06:07:56;;;;;;;2.28;1.52;;;;;;;20.01;84.37;99289.94;5072378;28;20386;-53
2022/08/15 06:10:29;;;;;;;2.75;1.80;;;;;;;20.07;83.94;99285.38;5072133;28;20040;-50
2022/08/15 06:13:10;;;;;;;3.58;1.88;;;;;;;20.08;83.75;99288.91;5073650;28;20035;-48
2022/08/15 06:16:02;;;;;;;2.72;1.90;;;;;;;20.03;84.14;99285.09;5072263;28;20115;-51
2022/08/15 06:18:30;;;;;;;4.13;1.65;;;;;;;20.04;83.23;99283.22;5073482;28;20036;-52
2022/08/15 06:21:19;;;;;;;3.60;1.40;;;;;;;20.08;83.38;99291.59;5071827;28;20072;-52
2022/08/15 06:24:12;;;;;;;2.67;1.60;;;;;;;20.08;82.97;99286.19;5072072;28;20118;-52
2022/08/15 06:26:59;;;;;;;2.55;1.50;;;;;;;20.09;82.76;99294.06;5071943;28;20475;-47
2022/08/15 06:30:04;;;;;;;3.10;1.73;;;;;;;20.09;82.11;99294.06;5071720;28;20044;-53
2022/08/15 06:32:38;;;;;;;3.15;1.73;;;;;;;20.22;81.63;99301.75;5071954;28;20033;-50
2022/08/15 06:35:38;;;;;;;2.72;1.67;;;;;;;20.24;81.35;99302.28;5072110;28;20036;-53
2022/08/15 06:38:29;;;;;;;2.97;1.88;;;;;;;20.22;81.73;99304.44;5038665;28;20041;-54
2022/08/15 06:41:13;;;;;;;1.70;1.38;;;;;;;20.25;81.69;99297.69;5071411;28;20111;-52
2022/08/15 06:43:38;;;;;;;2.30;1.50;;;;;;;20.28;80.47;99302.59;5072758;28;20024;-49
2022/08/15 06:46:05;;;;;;;2.90;1.27;;;;;;;20.31;80.96;99305.56;5071165;28;20517;-51
2022/08/15 06:48:35;;;;;;;3.70;1.67;;;;;;;20.36;79.96;99312.09;5071584;28;20094;-49
2022/08/15 06:51:05;;;;;;;3.10;1.15;;;;;;;20.29;80.04;99306.94;5071210;28;20286;-52
2022/08/15 06:53:39;;;;;;;2.22;1.70;;;;;;;20.31;79.58;99313.69;5071507;28;20062;-53
2022/08/15 06:56:34;;;;;;;2.50;1.60;;;;;;;20.18;80.10;99308.72;5071363;28;20043;-53
2022/08/15 06:59:23;;;;;;;;;;;;;;;20.16;80.43;99312.78;5071825;28;20157;-51
2022/08/15 07:02:09;;;;;;;;;;;;;;;20.13;80.17;99314.09;5071626;28;19916;-53
2022/08/15 07:05:14;;;;;;;;;;;;;;;20.15;80.57;99325.47;5071785;28;20385;-54
2022/08/15 07:07:43;;;;;;;;;;;;;;;20.14;80.24;99323.81;4975100;28;19914;-50
2022/08/15 07:10:27;;;;;;;;;;;;;;;20.10;80.67;99322.72;4974661;28;20401;-49
2022/08/15 07:13:00;;;;;;;;;;;;;;;20.08;80.69;99321.34;5033410;28;19913;-51
2022/08/15 07:15:26;;;;;;;;;;;;;;;20.11;81.35;99318.13;5071445;28;19916;-49
2022/08/15 07:17:55;;;;;;;;;;;;;;;20.17;80.71;99320.63;5071408;28;19916;-53
2022/08/15 07:20:21;;;;;;;;;;;;;;;20.26;80.38;99323.66;5070888;28;20282;-52
2022/08/15 07:22:47;;;;;;;;;;;;;;;20.41;80.03;99322.94;5071355;28;19917;-51
2022/08/15 07:25:18;;;;;;;;;;;;;;;20.63;78.99;99312.84;5071277;28;19920;-50
2022/08/15 07:28:03;;;;;;;;;;;;;;;20.86;78.55;99306.19;5071343;28;19928;-55
2022/08/15 07:30:44;;;;;;;;;;;;;;;21.01;77.55;99317.13;5070940;28;19912;-51
2022/08/15 07:33:26;;;;;;;;;;;;;;;21.06;76.97;99310.88;5054472;28;19913;-52
2022/08/15 07:35:57;;;;;;;;;;;;;;;21.12;76.53;99305.22;5071094;28;19918;-50
2022/08/15 07:38:28;;;;;;;;;;;;;;;21.19;76.28;99310.44;5071104;28;19954;-50
2022/08/15 07:41:14;;;;;;;;;;;;;;;21.35;75.84;99312.13;5070717;28;19946;-48
2022/08/15 07:43:40;;;;;;;;;;;;;;;21.33;74.94;99310.78;5071084;28;20385;-52
2022/08/15 07:46:33;;;;;;;;;;;;;;;21.34;74.59;99313.22;5070861;28;19912;-51
2022/08/15 07:49:07;;;;;;;;;;;;;;;21.38;74.55;99308.88;5072335;28;20014;-48
2022/08/15 07:51:43;;;;;;;;;;;;;;;21.45;74.24;99311.34;5070899;28;19937;-50
2022/08/15 07:54:26;;;;;;;;;;;;;;;21.58;74.27;99310.00;5070847;28;20303;-51
2022/08/15 07:56:54;;;;;;;;;;;;;;;21.66;73.27;99312.22;5053897;28;19916;-52
2022/08/15 07:59:22;;;;;;;;;;;;;;;21.79;71.88;99308.97;5070559;28;19920;-55
2022/08/15 08:01:51;;;;;;;;;;;;;;;21.93;69.94;99309.25;5054194;28;19923;-51
2022/08/15 08:04:27;;;;;;;;;;;;;;;21.99;70.14;99319.03;5070685;28;19955;-52
2022/08/15 08:06:58;;;;;;;;;;;;;;;22.01;70.05;99318.75;5070656;28;19927;-49
2022/08/15 08:09:30;;;;;;;;;;;;;;;22.27;69.71;99319.59;5070450;28;19912;-49
2022/08/15 08:12:07;;;;;;;;;;;;;;;22.31;69.37;99323.41;5070783;28;19958;-49
2022/08/15 08:14:35;;;;;;;;;;;;;;;22.22;69.92;99328.53;5070853;28;19970;-48
2022/08/15 08:17:20;;;;;;;;;;;;;;;22.19;69.65;99324.47;5070317;28;20002;-53
2022/08/15 08:20:03;;;;;;;;;;;;;;;22.28;70.09;99322.03;5070366;28;20233;-51
2022/08/15 08:22:47;;;;;;;;;;;;;;;22.38;68.33;99326.66;5070353;28;20003;-50
2022/08/15 08:25:23;;;;;;;;;;;;;;;22.33;68.99;99327.44;5070300;28;19916;-50
2022/08/15 08:28:01;;;;;;;;;;;;;;;22.44;69.43;99331.78;5070555;28;19919;-54
2022/08/15 08:30:36;;;;;;;;;;;;;;;22.63;67.85;99325.81;5070200;28;19999;-49
2022/08/15 08:33:11;;;;;;;;;;;;;;;22.63;68.14;99337.47;5071859;28;20380;-54
2022/08/15 08:36:03;;;;;;;;;;;;;;;22.71;68.03;99333.38;5071833;28;19913;-51
2022/08/15 08:38:35;;;;;;;;;;;;;;;22.84;68.40;99329.28;5040590;28;20339;-48
2022/08/15 08:41:34;;;;;;;;;;;;;;;22.82;67.72;99337.69;5071524;28;19959;-49
2022/08/15 08:44:18;;;;;;;;;;;;;;;22.74;67.84;99332.81;5071599;28;20292;-47
2022/08/15 08:47:02;;;;;;;;;;;;;;;22.69;68.79;99339.09;5071564;28;19998;-51
2022/08/15 08:49:53;;;;;;;;;;;;;;;22.66;68.33;99345.03;5071337;28;19912;-53
2022/08/15 08:52:24;;;;;;;;;;;;;;;22.66;68.26;99346.94;5071526;28;19919;-53
2022/08/15 08:55:01;;;;;;;;;;;;;;;22.53;68.55;99345.63;5071544;28;19912;-58
2022/08/15 08:57:48;;;;;;;;;;;;;;;22.54;68.43;99351.84;5071403;28;19920;-57
2022/08/15 09:00:15;;;;;;;;;;;;;;;22.56;68.92;99352.38;5071123;28;19922;-59
2022/08/15 09:02:49;;;;;;;;;;;;;;;22.72;67.82;99356.72;5070205;28;19967;-62
2022/08/15 09:05:40;;;;;;;;;;;;;;;22.92;67.70;99350.44;5071284;28;20292;-61
2022/08/15 09:08:12;;;;;;;;;;;;;;;23.20;67.01;99349.81;5073096;28;19981;-59
2022/08/15 09:10:41;;;;;;;;;;;;;;;23.50;66.54;99342.63;5074697;28;19923;-60
2022/08/15 09:15:55;;;;;;;;;;;;;;;23.82;63.29;99350.34;5074995;28;20377;-54
2022/08/15 09:18:46;;;;;;;;;;;;;;;23.75;63.67;99339.78;5074933;28;19927;-54
2022/08/15 09:21:12;;;;;;;;;;;;;;;23.86;63.09;99337.78;5070528;28;19923;-58
2022/08/15 09:23:38;;;;;;;;;;;;;;;24.13;63.20;99336.53;5074789;28;19912;-56
2022/08/15 09:26:13;;;;;;;;;;;;;;;24.39;61.95;99343.41;5074699;28;19934;-58
2022/08/15 09:28:41;;;;;;;;;;;;;;;24.58;60.09;99338.88;5074620;28;19912;-56
2022/08/15 09:31:27;;;;;;;;;;;;;;;24.82;59.79;99344.34;5074422;28;19955;-60
2022/08/15 09:34:01;;;;;;;;;;;;;;;24.94;58.70;99332.25;5074420;28;20373;-62
2022/08/15 09:36:29;;;;;;;;;;;;;;;25.17;57.48;99329.53;5074502;28;20361;-62
2022/08/15 09:39:00;;;;;;;;;;;;;;;25.37;56.19;99324.94;5074413;28;20000;-62
2022/08/15 09:41:28;;;;;;;;;;;;;;;25.38;56.35;99326.56;5074490;28;19920;-61
2022/08/15 09:44:00;;;;;;;;;;;;;;;25.60;55.95;99329.50;5074882;28;19912;-58
2022/08/15 09:46:45;;;;;;;;;;;;;;;25.40;55.58;99327.06;5074352;28;19916;-54
2022/08/15 09:49:29;;;;;;;;;;;;;;;25.51;54.71;99319.56;5032742;28;19993;-59
2022/08/15 09:52:06;;;;;;;;;;;;;;;25.89;54.42;99318.50;5074750;28;20280;-60
2022/08/15 09:54:42;;;;;;;;;;;;;;;26.00;53.60;99321.03;5074455;28;19919;-60
2022/08/15 09:57:19;;;;;;;;;;;;;;;26.36;52.66;99316.63;5074283;28;19912;-58
2022/08/15 09:59:48;;;;;;;;;;;;;;;26.96;50.57;99318.53;5074178;28;19930;-59
2022/08/15 10:02:17;;;;;;;;;;;;;;;27.20;49.13;99307.44;5074225;28;19916;-59
2022/08/15 10:04:48;;;;;;;;;;;;;;;27.78;46.57;99306.72;5074201;28;19919;-62
2022/08/15 10:07:13;;;;;;;;;;;;;;;27.83;46.76;99299.16;5074035;28;19912;-59
2022/08/15 10:09:57;;;;;;;;;;;;;;;28.20;45.67;99297.19;5073703;28;19924;-60
2022/08/15 10:12:23;;;;;;;;;;;;;;;28.75;45.17;99296.03;5073959;28;20315;-60
2022/08/15 10:14:48;;;;;;;;;;;;;;;28.99;46.18;99295.66;5073871;28;19999;-57
2022/08/15 10:17:22;;;;;;;;;;;;;;;29.05;43.22;99288.91;5073703;28;19947;-60
2022/08/15 10:19:48;;;;;;;;;;;;;;;29.23;43.31;99284.28;5073334;28;19974;-57
2022/08/15 10:22:22;;;;;;;;;;;;;;;29.06;43.39;99279.56;5073449;28;19916;-61
2022/08/15 10:25:06;;;;;;;;;;;;;;;29.23;43.03;99278.81;5073600;28;19912;-56
2022/08/15 10:27:51;;;;;;;;;;;;;;;29.49;42.65;99279.63;5073373;28;19958;-60
2022/08/15 10:30:17;;;;;;;;;;;;;;;29.40;42.90;99279.63;5073344;28;19948;-61
2022/08/15 10:32:43;;;;;;;;;;;;;;;29.04;42.81;99292.78;5073545;28;20357;-61
2022/08/15 10:35:12;;;;;;;;;;;;;;;28.72;43.52;99288.47;5073881;28;20369;-55
2022/08/15 10:37:50;;;;;;;;;;;;;;;28.80;43.41;99279.47;5073257;28;20301;-57
2022/08/15 10:40:36;;;;;;;;;;;;;;;28.34;44.33;99278.78;5073001;28;20392;-59
2022/08/15 10:43:07;;;;;;;;;;;;;;;28.94;43.86;99263.72;5073275;28;19916;-60
2022/08/15 10:45:46;;;;;;;;;;;;;;;29.33;42.90;99262.84;5073198;28;19912;-58
2022/08/15 10:48:30;;;;;;;;;;;;;;;29.98;40.96;99264.63;5073231;28;19938;-59
2022/08/15 10:50:59;;;;;;;;;;;;;;;30.43;39.84;99261.47;5072785;28;19916;-58
2022/08/15 10:53:48;;;;;;;;;;;;;;;30.20;41.06;99257.34;5073089;28;19913;-61
2022/08/15 10:56:19;;;;;;;;;;;;;;;30.77;39.15;99260.53;5073016;28;19913;-62
2022/08/15 10:58:46;;;;;;;;;;;;;;;30.90;38.20;99258.69;5073194;28;19912;-62
2022/08/15 11:01:13;;;;;;;;;;;;;;;30.08;38.75;99262.69;5072675;28;19917;-62
2022/08/15 11:03:41;;;;;;;;;;;;;;;29.94;39.18;99258.19;5073091;28;19919;-61
2022/08/15 11:06:08;;;;;;;;;;;;;;;30.66;38.81;99253.00;5072838;28;20342;-63
2022/08/15 11:08:36;;;;;;;;;;;;;;;30.51;37.78;99243.34;5072814;28;19962;-63
2022/08/15 11:11:08;;;;;;;;;;;;;;;30.43;38.99;99242.25;5072376;28;20006;-63
2022/08/15 11:13:35;;;;;;;;;;;;;;;30.68;38.16;99245.25;5071386;28;20437;-63
2022/08/15 11:16:13;;;;;;;;;;;;;;;30.87;39.04;99242.88;5072655;28;19915;-63
2022/08/15 11:18:44;;;;;;;;;;;;;;;31.37;36.91;99236.59;5072678;28;19944;-59
2022/08/15 11:21:18;;;;;;;;;;;;;;;31.65;37.32;99236.84;5072285;28;20032;-61
2022/08/15 11:23:50;;;;;;;;;;;;;;;32.32;36.10;99243.94;5072604;28;19912;-61
2022/08/15 11:26:21;;;;;;;;;;;;;;;32.36;34.64;99246.84;5072557;28;20411;-62
2022/08/15 11:28:48;;;;;;;;;;;;;;;31.30;35.52;99239.09;5072358;28;19917;-58
2022/08/15 11:31:18;;;;;;;;;;;;;;;30.72;36.60;99237.97;5071728;28;20399;-61
2022/08/15 11:33:45;;;;;;;;;;;;;;;30.65;36.86;99245.88;5072293;28;19936;-61
2022/08/15 11:36:22;;;;;;;;;;;;;;;30.69;37.58;99242.16;5070960;28;19963;-63
2022/08/15 11:38:52;;;;;;;;;;;;;;;31.50;37.30;99232.75;5072244;28;19923;-62
2022/08/15 11:41:22;;;;;;;;;;;;;;;31.99;37.77;99238.47;5070614;28;20332;-63
2022/08/15 11:43:50;;;;;;;;;;;;;;;31.22;37.02;99231.66;5072333;28;19955;-63
2022/08/15 11:46:17;;;;;;;;;;;;;;;32.42;35.79;99230.91;5072493;28;19916;-63
2022/08/15 11:48:46;;;;;;;;;;;;;;;31.93;35.31;99223.31;5072172;28;19966;-62
2022/08/15 11:51:15;;;;;;;;;;;;;;;32.89;34.25;99221.03;5072017;28;19916;-63
2022/08/15 11:53:45;;;;;;;;;;;;;;;33.38;33.23;99222.88;5070835;28;19962;-63
2022/08/15 11:56:17;;;;;;;;;;;;;;;33.00;33.52;99215.88;5072047;28;20026;-62
2022/08/15 11:58:44;;;;;;;;;;;;;;;33.35;33.11;99215.31;5072110;28;19912;-62
2022/08/15 12:01:44;;;;;;;;;;;;;;;33.80;32.73;99215.06;5071867;28;19924;-62
2022/08/15 12:04:12;;;;;;;;;;;;;;;34.18;31.88;99213.72;5028487;28;19919;-62
2022/08/15 12:06:39;;;;;;;;;;;;;;;33.42;32.26;99212.78;5071894;28;20313;-62
2022/08/15 12:09:07;;;;;;;;;;;;;;;34.04;31.91;99214.16;5071836;28;19923;-62
2022/08/15 12:11:38;;;;;;;;;;;;;;;34.06;31.17;99209.06;5072067;28;19958;-62
2022/08/15 12:14:11;;;;;;;;;;;;;;;34.75;30.91;99218.69;5071934;28;19912;-63
2022/08/15 12:16:39;;;;;;;;;;;;;;;33.51;31.56;99209.88;5071814;28;20365;-62
2022/08/15 12:19:23;;;;;;;;;;;;;;;32.72;32.48;99207.47;5071593;28;19920;-59
2022/08/15 12:21:50;;;;;;;;;;;;;;;32.61;33.23;99209.91;5071694;28;19916;-61
2022/08/15 12:24:29;;;;;;;;;;;;;;;31.94;34.19;99205.63;5071816;28;19916;-60
2022/08/15 12:27:01;;;;;;;;;;;;;;;31.37;34.56;99203.59;5071654;28;19912;-58
2022/08/15 12:29:27;;;;;;;;;;;;;;;31.49;35.15;99211.06;5071424;28;19912;-57
2022/08/15 12:31:53;;;;;;;;;;;;;;;31.91;34.16;99219.31;5071653;28;20393;-57
2022/08/15 12:34:23;;;;;;;;;;;;;;;31.73;33.29;99213.13;5071689;28;19923;-55
2022/08/15 12:36:49;;;;;;;;;;;;;;;32.40;33.69;99211.94;5071593;28;20420;-63
2022/08/15 12:39:17;;;;;;;;;;;;;;;32.63;33.38;99215.88;5071389;28;19958;-62
2022/08/15 12:41:45;;;;;;;;;;;;;;;33.25;33.00;99213.03;5071433;28;20377;-59
2022/08/15 12:44:20;;;;;;;;;;;;;;;33.79;31.70;99218.97;5075233;28;19916;-62
2022/08/15 12:46:46;;;;;;;;;;;;;;;34.25;31.19;99214.69;5074287;28;20376;-63
2022/08/15 12:49:11;;;;;;;;;;;;;;;33.66;31.99;99222.94;5075355;28;19912;-62
2022/08/15 12:51:36;;;;;;;;;;;;;;;33.85;31.91;99219.53;5075684;28;19962;-61
2022/08/15 12:54:02;;;;;;;;;;;;;;;32.98;32.35;99220.13;5075391;28;20025;-62
2022/08/15 12:56:27;;;;;;;;;;;;;;;32.14;33.10;99220.47;5075629;28;19981;-60
2022/08/15 12:58:53;;;;;;;;;;;;;;;31.99;33.55;99223.91;5075161;28;19912;-56
2022/08/15 13:01:18;;;;;;;;;;;;;;;31.30;35.39;99219.81;5075139;28;20446;-62
2022/08/15 13:03:44;;;;;;;;;;;;;;;31.04;35.49;99226.28;5075428;28;20352;-60
2022/08/15 13:06:33;;;;;;;;;;;;;;;31.06;36.17;99223.19;5075077;28;19917;-59
2022/08/15 13:08:58;;;;;;;;;;;;;;;31.77;34.78;99214.06;5064179;28;19912;-62
2022/08/15 13:11:25;;;;;;;;;;;;;;;31.40;34.97;99211.16;5074792;28;19923;-60
2022/08/15 13:13:50;;;;;;;;;;;;;;;31.27;35.18;99217.72;5074973;28;20442;-61
2022/08/15 13:16:16;;;;;;;;;;;;;;;30.62;35.98;99217.09;5074911;28;19924;-61
2022/08/15 13:18:41;;;;;;;;;;;;;;;29.95;37.37;99221.38;5073413;28;20376;-59
2022/08/15 13:23:52;;;;;;;;;;;;;;;29.30;39.02;99203.16;5074589;28;20373;-61
2022/08/15 13:26:19;;;;;;;;;;;;;;;28.67;40.92;99209.94;5074489;28;19908;-60
2022/08/15 13:28:46;;;;;;;;;;;;;;;28.85;41.08;99211.63;5074460;28;19916;-62
2022/08/15 13:31:13;;;;;;;;;;;;;;;28.34;42.65;99207.56;5074405;28;20370;-61
2022/08/15 13:33:38;;;;;;;;;;;;;;;28.50;41.01;99218.13;5075223;28;19913;-60
2022/08/15 13:36:09;;;;;;;;;;;;;;;28.44;40.25;99216.66;5074563;28;20498;-57
2022/08/15 13:38:35;;;;;;;;;;;;;;;27.77;42.43;99212.88;5074525;28;19912;-60
2022/08/15 13:41:00;;;;;;;;;;;;;;;27.35;43.27;99207.88;5074070;28;20301;-60
2022/08/15 13:43:25;;;;;;;;;;;;;;;27.16;43.79;99203.34;5074290;28;20391;-59
2022/08/15 13:45:51;;;;;;;;;;;;;;;26.97;44.57;99203.47;5074245;28;19916;-59
2022/08/15 13:48:20;;;;;;;;;;;;;;;26.67;45.52;99218.59;5074270;28;20066;-56
2022/08/15 13:50:46;;;;;;;;;;;;;;;26.35;47.02;99218.66;5073928;28;19916;-60
2022/08/15 13:53:12;;;;;;;;;;;;;;;26.31;47.81;99217.63;5073860;28;20370;-62
2022/08/15 13:55:38;;;;;;;;;;;;;;;26.31;47.67;99221.16;5072253;28;19920;-61
2022/08/15 13:58:03;;;;;;;;;;;;;;;26.43;47.47;99226.16;5073581;28;19912;-62
2022/08/15 14:00:29;;;;;;;;;;;;;;;26.65;46.02;99217.25;5073979;28;20381;-61
2022/08/15 14:02:54;;;;;;;;;;;;;;;26.67;43.20;99217.75;5074125;28;19920;-60
2022/08/15 14:05:20;;;;;;;;;;;;;;;26.54;44.26;99227.59;5073974;28;20010;-61
2022/08/15 14:07:46;;;;;;;;;;;;;;;26.57;43.35;99217.97;5074010;28;19921;-61
2022/08/15 14:10:16;;;;;;;;;;;;;;;26.62;43.96;99235.06;5073738;28;19920;-60
2022/08/15 14:12:42;;;;;;;;;;;;;;;26.55;43.16;99239.31;5073994;28;19919;-60
2022/08/15 14:15:08;;;;;;;;;;;;;;;26.37;44.35;99257.38;5073930;28;19912;-60
2022/08/15 14:17:34;;;;;;;;;;;;;;;26.30;43.87;99263.22;5073816;28;20350;-59
2022/08/15 14:20:00;;;;;;;;;;;;;;;26.18;45.49;99274.63;5073494;28;19912;-59
2022/08/15 14:22:26;;;;;;;;;;;;;;;25.91;46.06;99271.81;5073809;28;19924;-58
2022/08/15 14:24:51;;;;;;;;;;;;;;;25.63;46.92;99293.50;5073632;28;19946;-58
2022/08/15 14:27:17;;;;;;;;;;;;;;;25.52;47.42;99296.66;5073673;28;19920;-58
2022/08/15 14:29:43;;;;;;;;;;;;;;;25.32;47.60;99301.28;5073414;28;19959;-57
2022/08/15 14:32:11;;;;;;;;;;;;;;;25.22;48.39;99300.59;5073445;28;19955;-59
2022/08/15 14:34:37;;;;;;;;;;;;;;;24.83;49.03;99310.56;5073543;28;19916;-57
2022/08/15 14:37:04;;;;;;;;;;;;;;;24.71;49.38;99320.22;5073328;28;20262;-60
2022/08/15 14:39:29;;;;;;;;;;;;;;;24.60;49.34;99320.34;5073044;28;20389;-60
2022/08/15 14:41:55;;;;;;;;;;;;;;;24.68;50.18;99315.38;5073632;28;19924;-58
2022/08/15 14:44:20;;;;;;;;;;;;;;;24.59;49.67;99320.63;5073235;28;19963;-59
2022/08/15 14:46:46;;;;;;;;;;;;;;;24.59;49.81;99318.72;5073344;28;20369;-60
2022/08/15 14:49:12;;;;;;;;;;;;;;;24.39;50.30;99329.81;5072952;28;19924;-58
2022/08/15 14:51:38;;;;;;;;;;;;;;;24.20;49.90;99331.59;5073077;28;19912;-58
2022/08/15 14:54:06;;;;;;;;;;;;;;;23.95;50.14;99340.75;5073066;28;19919;-56
2022/08/15 14:56:31;;;;;;;;;;;;;;;23.78;51.25;99330.25;5072852;28;19913;-58
2022/08/15 14:58:58;;;;;;;;;;;;;;;23.73;52.06;99322.91;5072756;28;19912;-58
2022/08/15 15:01:23;;;;;;;;;;;;;;;23.59;53.52;99326.53;5072777;28;19916;-57
2022/08/15 15:03:52;;;;;;;;;;;;;;;23.35;55.05;99327.22;5072812;28;19939;-57
2022/08/15 15:06:20;;;;;;;;;;;;;;;23.41;55.47;99320.66;5072146;28;19966;-57
2022/08/15 15:08:46;;;;;;;;;;;;;;;23.16;55.74;99316.16;5072685;28;20361;-56
2022/08/15 15:11:12;;;;;;;;;;;;;;;23.17;56.52;99316.97;5072549;28;19919;-59
2022/08/15 15:13:38;;;;;;;;;;;;;;;22.90;57.81;99309.19;5072576;28;19912;-59
2022/08/15 15:16:04;;;;;;;;;;;;;;;22.85;57.98;99309.19;5072628;28;19986;-61
2022/08/15 15:18:29;;;;;;;;;;;;;;;22.83;57.27;99301.31;5072796;28;19934;-60
2022/08/15 15:20:57;;;;;;;;;;;;;;;22.82;57.70;99296.97;5072094;28;20015;-61
2022/08/15 15:23:23;;;;;;;;;;;;;;;22.81;58.09;99284.47;5072623;28;20302;-61
2022/08/15 15:25:48;;;;;;;;;;;;;;;22.92;57.99;99280.66;5072484;28;19917;-61
2022/08/15 15:28:15;;;;;;;;;;;;;;;23.10;57.91;99275.72;5072354;28;19994;-61
2022/08/15 15:30:40;;;;;;;;;;;;;;;23.08;58.48;99272.44;5072172;28;19919;-61
2022/08/15 15:33:06;;;;;;;;;;;;;;;23.07;58.57;99278.97;5072731;28;20019;-61
2022/08/15 15:35:31;;;;;;;;;;;;;;;23.05;58.71;99267.59;5072414;28;19924;-60
2022/08/15 15:37:56;;;;;;;;;;;;;;;23.04;58.87;99274.13;5072254;28;19970;-61
2022/08/15 15:40:23;;;;;;;;;;;;;;;22.96;58.47;99270.88;5071826;28;19971;-61
2022/08/15 15:42:48;;;;;;;;;;;;;;;22.90;57.95;99271.19;5072159;28;19927;-60
2022/08/15 15:45:14;;;;;;;;;;;;;;;22.91;59.01;99265.47;5070299;28;19912;-61
2022/08/15 15:47:43;;;;;;;;;;;;;;;22.91;58.99;99265.47;5071946;28;20377;-61
2022/08/15 15:50:11;;;;;;;;;;;;;;;23.11;59.25;99266.47;5071522;28;19912;-61
2022/08/15 15:52:37;;;;;;;;;;;;;;;23.09;59.72;99272.19;5072012;28;20437;-61
2022/08/15 15:55:03;;;;;;;;;;;;;;;23.08;58.68;99270.53;5072001;28;19935;-59
2022/08/15 15:57:30;;;;;;;;;;;;;;;23.15;59.16;99279.22;5071895;28;20369;-61
2022/08/15 15:59:55;;;;;;;;;;;;;;;23.27;59.26;99273.44;5071731;28;19916;-61
2022/08/15 16:02:22;;;;;;;;;;;;;;;23.36;59.00;99273.69;5071811;28;20015;-63
2022/08/15 16:04:47;;;;;;;;;;;;;;;23.31;59.21;99277.22;5071898;28;19958;-53
2022/08/15 16:07:12;;;;;;;;;;;;;;;23.31;58.48;99282.66;5071877;28;19916;-65
2022/08/15 16:09:38;;;;;;;;;;;;;;;23.31;58.51;99279.13;5071281;28;20019;-64
2022/08/15 16:12:15;;;;;;;;;;;;;;;23.34;59.21;99275.84;5072018;28;20000;-65
2022/08/15 16:14:43;;;;;;;;;;;;;;;23.54;58.22;99270.31;5072066;28;19915;-64
2022/08/15 16:17:16;;;;;;;;;;;;;;;23.53;57.50;99274.91;5071669;28;20292;-65
2022/08/15 16:19:45;;;;;;;;;;;;;;;23.71;57.49;99278.91;5071555;28;19942;-65
2022/08/15 16:22:13;;;;;;;;;;;;;;;23.65;57.46;99279.22;5071720;28;20008;-65
2022/08/15 16:24:45;;;;;;;;;;;;;;;23.66;57.28;99283.56;5071780;28;20011;-64
2022/08/15 16:27:14;;;;;;;;;;;;;;;23.71;57.11;99281.63;5071675;28;19912;-65
2022/08/15 16:29:45;;;;;;;;;;;;;;;23.76;57.31;99278.06;5071425;28;19997;-64
2022/08/15 16:32:14;;;;;;;;;;;;;;;23.88;56.03;99275.81;5071647;28;19957;-65
2022/08/15 16:34:44;;;;;;;;;;;;;;;23.85;54.99;99284.50;5072083;28;19916;-64
2022/08/15 16:37:13;;;;;;;;;;;;;;;23.77;55.55;99282.41;5071513;28;19912;-65
2022/08/15 16:39:48;;;;;;;;;;;;;;;23.78;54.65;99278.59;5071202;28;19959;-65
2022/08/15 16:42:21;;;;;;;;;;;;;;;23.90;54.08;99280.94;5071474;28;20373;-64
2022/08/15 16:44:46;;;;;;;;;;;;;;;23.86;53.02;99282.59;5071645;28;20023;-65
2022/08/15 16:47:19;;;;;;;;;;;;;;;23.80;53.99;99284.56;5071393;28;20301;-64
2022/08/15 16:49:44;;;;;;;;;;;;;;;23.70;53.47;99287.34;5071245;28;20007;-65
2022/08/15 16:52:10;;;;;;;;;;;;;;;23.78;53.14;99287.56;5071586;28;20490;-66
2022/08/15 16:54:44;;;;;;;;;;;;;;;23.77;52.96;99282.41;5070261;28;20349;-65
2022/08/15 16:57:17;;;;;;;;;;;;;;;23.77;51.79;99285.13;5071477;28;19999;-65
2022/08/15 16:59:50;;;;;;;;;;;;;;;23.81;52.10;99284.28;5071153;28;20485;-65
2022/08/15 17:02:26;;;;;;;;;;;;;;;23.82;51.87;99283.19;5071296;28;20397;-65
2022/08/15 17:05:03;;;;;;;;;;;;;;;23.73;52.00;99278.63;5071466;28;19966;-64
2022/08/15 17:07:38;;;;;;;;;;;;;;;23.70;52.09;99273.75;5071806;28;20297;-65
2022/08/15 17:10:06;;;;;;;;;;;;;;;23.67;51.30;99269.72;5071198;28;19913;-64
2022/08/15 17:12:41;;;;;;;;;;;;;;;23.68;50.71;99276.78;5071277;28;19912;-64
2022/08/15 17:15:13;;;;;;;;;;;;;;;23.68;50.69;99275.97;5071447;28;19920;-65
2022/08/15 17:18:01;;;;;;;;;;;;;;;23.59;50.03;99274.88;5071342;28;20001;-65
2022/08/15 17:20:30;;;;;;;;;;;;;;;23.50;49.16;99274.69;5060055;28;20328;-65
2022/08/15 17:23:05;;;;;;;;;;;;;;;23.44;48.69;99281.22;5071128;28;20053;-65